createdAt,value
2022-10-03T00:01:22.121Z,27.60
2022-10-03T00:03:37.102Z,27.92
2022-10-03T00:05:57.472Z,20.35
2022-10-03T00:08:28.987Z,14.23
2022-10-03T00:10:38.910Z,14.20
2022-10-03T00:12:47.475Z,13.95
2022-10-03T00:15:09.884Z,16.40
2022-10-03T00:17:28.274Z,13.30
2022-10-03T00:19:59.629Z,11.35
2022-10-03T00:22:21.506Z,8.50
2022-10-03T00:24:47.573Z,4.90
2022-10-03T00:26:56.505Z,9.15
2022-10-03T00:29:20.651Z,18.75
2022-10-03T00:31:43.086Z,18.83
2022-10-03T00:34:09.768Z,28.75
2022-10-03T00:36:42.863Z,22.75
2022-10-03T00:39:21.104Z,23.65
2022-10-03T00:41:55.697Z,19.10
2022-10-03T00:44:16.784Z,19.42
2022-10-03T00:46:37.479Z,19.80
2022-10-03T00:49:06.821Z,16.10
2022-10-03T00:51:27.117Z,15.52
2022-10-03T00:53:47.129Z,14.55
2022-10-03T00:56:03.648Z,15.15
2022-10-03T00:58:32.019Z,13.27
2022-10-03T01:00:35.559Z,7.75
2022-10-03T01:03:09.593Z,6.40
2022-10-03T01:05:48.401Z,6.05
2022-10-03T01:07:58.211Z,4.93
2022-10-03T01:10:37.063Z,5.05
2022-10-03T01:13:22.188Z,6.68
2022-10-03T01:15:43.578Z,4.47
2022-10-03T01:17:54.056Z,4.65
2022-10-03T01:20:18.416Z,4.57
2022-10-03T01:22:48.915Z,5.68
2022-10-03T01:24:53.779Z,8.00
2022-10-03T01:27:00.896Z,8.05
2022-10-03T01:29:29.294Z,7.47
2022-10-03T01:31:39.118Z,7.53
2022-10-03T01:33:49.146Z,7.03
2022-10-03T01:36:03.292Z,5.10
2022-10-03T01:38:28.164Z,5.93
2022-10-03T01:41:15.185Z,5.45
2022-10-03T01:43:33.040Z,5.30
2022-10-03T01:45:49.759Z,13.30
2022-10-03T01:48:01.311Z,17.83
2022-10-03T01:50:08.925Z,17.83
2022-10-03T01:52:37.246Z,16.83
2022-10-03T01:55:08.300Z,19.17
2022-10-03T01:57:41.996Z,17.85
2022-10-03T02:00:02.284Z,19.05
2022-10-03T02:02:42.761Z,14.98
2022-10-03T02:04:52.847Z,6.57
2022-10-03T02:07:03.175Z,8.30
2022-10-03T02:09:16.880Z,5.93
2022-10-03T02:11:58.148Z,4.95
2022-10-03T02:14:18.068Z,5.60
2022-10-03T02:16:44.975Z,14.18
2022-10-03T02:18:49.963Z,18.52
2022-10-03T02:21:03.088Z,12.50
2022-10-03T02:23:24.051Z,7.65
2022-10-03T02:25:31.924Z,7.45
2022-10-03T02:28:15.261Z,10.02
2022-10-03T02:30:20.081Z,9.98
2022-10-03T02:32:52.154Z,10.60
2022-10-03T02:35:08.040Z,8.68
2022-10-03T02:37:47.271Z,7.75
2022-10-03T02:40:08.715Z,5.65
2022-10-03T02:42:55.300Z,5.03
2022-10-03T02:45:21.335Z,4.00
2022-10-03T02:47:51.262Z,4.32
2022-10-03T02:50:13.795Z,4.28
2022-10-03T02:52:45.871Z,4.60
2022-10-03T02:55:06.112Z,8.32
2022-10-03T02:57:39.742Z,14.40
2022-10-03T03:00:05.945Z,15.25
2022-10-03T03:02:48.120Z,14.18
2022-10-03T03:05:18.661Z,15.15
2022-10-03T03:07:39.354Z,18.90
2022-10-03T03:10:05.323Z,16.15
2022-10-03T03:12:25.419Z,13.32
2022-10-03T03:14:40.102Z,19.77
2022-10-03T03:16:57.949Z,19.10
2022-10-03T03:19:11.268Z,19.85
2022-10-03T03:22:01.862Z,15.82
2022-10-03T03:24:14.446Z,18.48
2022-10-03T03:26:16.481Z,18.83
2022-10-03T03:28:24.640Z,18.98
2022-10-03T03:30:39.103Z,18.92
2022-10-03T03:33:12.887Z,17.70
2022-10-03T03:35:27.179Z,25.35
2022-10-03T03:37:44.151Z,28.58
2022-10-03T03:39:57.335Z,37.97
2022-10-03T03:42:41.062Z,33.25
2022-10-03T03:44:58.615Z,27.98
2022-10-03T03:47:16.749Z,25.77
2022-10-03T03:49:49.731Z,17.63
2022-10-03T03:52:02.293Z,19.63
2022-10-03T03:54:26.437Z,22.65
2022-10-03T03:56:49.401Z,18.45
2022-10-03T03:59:19.266Z,20.83
2022-10-03T04:01:52.266Z,16.35
2022-10-03T04:04:23.394Z,16.63
2022-10-03T04:06:40.567Z,13.38
2022-10-03T04:09:01.055Z,10.75
2022-10-03T04:11:18.581Z,8.88
2022-10-03T04:13:48.364Z,9.07
2022-10-03T04:15:56.569Z,10.70
2022-10-03T04:18:20.178Z,19.73
2022-10-03T04:20:26.855Z,27.73
2022-10-03T04:23:01.726Z,41.00
2022-10-03T04:25:41.275Z,47.42
2022-10-03T04:28:14.399Z,37.03
2022-10-03T04:30:20.930Z,27.48
2022-10-03T04:32:49.152Z,20.02
2022-10-03T04:34:51.221Z,14.68
2022-10-03T04:37:24.518Z,9.00
2022-10-03T04:40:13.695Z,4.85
2022-10-03T04:42:39.833Z,3.30
2022-10-03T04:45:00.788Z,2.00
2022-10-03T04:47:15.671Z,2.28
2022-10-03T04:49:37.511Z,2.45
2022-10-03T04:52:26.241Z,2.35
2022-10-03T04:54:53.281Z,2.50
2022-10-03T04:57:32.992Z,2.20
2022-10-03T04:59:38.142Z,1.80
2022-10-03T05:01:47.810Z,2.00
2022-10-03T05:04:10.838Z,2.20
2022-10-03T05:06:19.544Z,1.98
2022-10-03T05:08:30.471Z,2.22
2022-10-03T05:10:53.251Z,2.35
2022-10-03T05:13:27.428Z,2.40
2022-10-03T05:16:06.773Z,1.50
2022-10-03T05:18:11.608Z,1.77
2022-10-03T05:20:45.041Z,1.63
2022-10-03T05:23:17.675Z,1.50
2022-10-03T05:25:43.682Z,1.58
2022-10-03T05:27:52.240Z,3.38
2022-10-03T05:30:09.837Z,4.28
2022-10-03T05:32:21.006Z,3.70
2022-10-03T05:34:33.490Z,2.92
2022-10-03T05:36:53.107Z,2.83
2022-10-03T05:39:16.844Z,2.78
2022-10-03T05:41:35.848Z,8.50
2022-10-03T05:44:01.872Z,51.92
2022-10-03T05:46:21.633Z,80.80
2022-10-03T05:48:39.055Z,64.57
2022-10-03T05:51:14.987Z,30.25
2022-10-03T05:53:17.066Z,57.53
2022-10-03T05:55:48.229Z,53.72
2022-10-03T05:57:59.419Z,29.15
2022-10-03T06:00:01.380Z,36.60
2022-10-03T06:02:38.318Z,55.97
2022-10-03T06:05:17.038Z,66.68
2022-10-03T06:08:00.273Z,72.93
2022-10-03T06:10:08.323Z,43.75
2022-10-03T06:12:33.457Z,23.90
2022-10-03T06:15:10.795Z,20.77
2022-10-03T06:17:33.932Z,19.42
2022-10-03T06:19:44.816Z,22.27
2022-10-03T06:22:05.020Z,17.45
2022-10-03T06:24:35.043Z,19.67
2022-10-03T06:26:40.184Z,31.90
2022-10-03T06:29:19.681Z,32.15
2022-10-03T06:31:44.277Z,38.60
2022-10-03T06:34:01.588Z,26.70
2022-10-03T06:36:26.491Z,36.70
2022-10-03T06:38:40.686Z,46.40
2022-10-03T06:40:53.532Z,48.40
2022-10-03T06:42:58.494Z,35.17
2022-10-03T06:45:38.085Z,28.77
2022-10-03T06:47:52.758Z,32.47
2022-10-03T06:50:36.192Z,36.40
2022-10-03T06:53:02.533Z,32.95
2022-10-03T06:55:35.692Z,37.60
2022-10-03T06:57:51.520Z,32.28
2022-10-03T07:00:10.494Z,33.22
2022-10-03T07:02:39.163Z,31.88
2022-10-03T07:08:35.952Z,18.83
2022-10-03T07:10:48.349Z,17.05
2022-10-03T07:12:59.307Z,9.73
2022-10-03T07:16:02.094Z,7.03
2022-10-03T07:18:27.534Z,4.70
2022-10-03T07:21:06.742Z,3.70
2022-10-03T07:23:43.241Z,4.30
2022-10-03T07:26:12.921Z,8.88
2022-10-03T07:28:39.247Z,5.75
2022-10-03T07:31:03.246Z,4.45
2022-10-03T07:33:42.056Z,6.55
2022-10-03T07:36:30.613Z,5.05
2022-10-03T07:39:07.325Z,9.02
2022-10-03T07:41:43.732Z,10.77
2022-10-03T07:44:04.260Z,10.10
2022-10-03T07:46:28.905Z,12.48
2022-10-03T07:48:50.176Z,14.73
2022-10-03T07:51:13.882Z,15.85
2022-10-03T07:53:18.733Z,11.07
2022-10-03T07:55:39.427Z,9.98
2022-10-03T07:58:09.486Z,9.65
2022-10-03T08:00:17.990Z,9.82
2022-10-03T08:02:41.926Z,9.68
2022-10-03T08:05:16.074Z,8.20
2022-10-03T08:07:36.547Z,7.82
2022-10-03T08:10:02.516Z,9.13
2022-10-03T08:12:16.820Z,8.63
2022-10-03T08:14:37.754Z,6.60
2022-10-03T08:16:58.752Z,38.35
2022-10-03T08:19:23.238Z,72.38
2022-10-03T08:21:39.067Z,51.10
2022-10-03T08:24:04.769Z,51.72
2022-10-03T08:26:23.383Z,68.95
2022-10-03T08:29:09.004Z,90.63
2022-10-03T08:31:35.332Z,76.22
2022-10-03T08:34:10.922Z,47.85
2022-10-03T08:36:45.780Z,33.65
2022-10-03T08:38:59.856Z,41.78
2022-10-03T08:41:36.899Z,48.65
2022-10-03T08:44:07.354Z,43.97
2022-10-03T08:46:11.945Z,29.27
2022-10-03T08:48:34.771Z,23.33
2022-10-03T08:50:46.604Z,19.83
2022-10-03T08:53:20.676Z,18.35
2022-10-03T08:55:45.851Z,7.95
2022-10-03T08:57:59.044Z,5.55
2022-10-03T09:00:19.032Z,7.13
2022-10-03T09:02:33.179Z,13.20
2022-10-03T09:05:03.407Z,14.30
2022-10-03T09:07:19.741Z,11.55
2022-10-03T09:09:43.454Z,9.38
2022-10-03T09:12:25.400Z,17.98
2022-10-03T09:14:50.697Z,19.00
2022-10-03T09:16:55.322Z,20.13
2022-10-03T09:19:14.816Z,20.27
2022-10-03T09:21:38.287Z,17.88
2022-10-03T09:23:58.079Z,14.35
2022-10-03T09:26:26.319Z,18.00
2022-10-03T09:29:13.123Z,16.48
2022-10-03T09:31:31.206Z,14.45
2022-10-03T09:34:04.019Z,14.02
2022-10-03T09:36:43.300Z,14.57
2022-10-03T09:39:16.604Z,15.73
2022-10-03T09:41:42.178Z,10.73
2022-10-03T09:44:03.203Z,8.02
2022-10-03T09:46:46.689Z,5.40
2022-10-03T09:49:26.504Z,3.67
2022-10-03T09:51:40.212Z,5.20
2022-10-03T09:54:24.136Z,5.28
2022-10-03T09:56:26.312Z,3.45
2022-10-03T09:58:42.049Z,4.32
2022-10-03T10:01:15.845Z,7.05
2022-10-03T10:03:42.387Z,9.88
2022-10-03T10:06:00.521Z,8.82
2022-10-03T10:08:33.442Z,7.10
2022-10-03T10:11:03.454Z,4.47
2022-10-03T10:14:05.812Z,2.65
2022-10-03T10:16:49.663Z,2.25
2022-10-03T10:19:03.593Z,1.75
2022-10-03T10:21:23.877Z,1.85
2022-10-03T10:23:47.772Z,1.98
2022-10-03T10:26:30.012Z,1.80
2022-10-03T10:28:59.816Z,1.50
2022-10-03T10:31:07.655Z,1.60
2022-10-03T10:33:45.720Z,1.70
2022-10-03T10:36:19.457Z,1.52
2022-10-03T10:38:39.853Z,1.45
2022-10-03T10:40:47.678Z,1.52
2022-10-03T10:43:23.774Z,1.60
2022-10-03T10:45:54.310Z,1.08
2022-10-03T10:48:46.851Z,1.50
2022-10-03T10:51:06.619Z,1.48
2022-10-03T10:53:42.696Z,1.45
2022-10-03T10:56:23.036Z,1.40
2022-10-03T10:58:43.065Z,1.73
2022-10-03T11:00:50.720Z,0.93
2022-10-03T11:03:15.678Z,1.45
2022-10-03T11:05:36.501Z,1.10
2022-10-03T11:08:19.374Z,1.40
2022-10-03T11:10:33.182Z,1.10
2022-10-03T11:12:41.199Z,1.10
2022-10-03T11:15:11.145Z,1.13
2022-10-03T11:17:48.133Z,1.38
2022-10-03T11:20:11.792Z,1.75
2022-10-03T11:22:32.363Z,1.60
2022-10-03T11:24:59.587Z,1.15
2022-10-03T11:27:43.446Z,2.05
2022-10-03T11:30:23.302Z,2.10
2022-10-03T11:33:13.411Z,2.25
2022-10-03T11:35:45.350Z,1.83
2022-10-03T11:37:58.724Z,1.60
2022-10-03T11:40:22.069Z,2.20
2022-10-03T11:42:33.556Z,1.40
2022-10-03T11:44:45.265Z,1.30
2022-10-03T11:47:13.978Z,1.33
2022-10-03T11:49:36.205Z,1.15
2022-10-03T11:51:52.842Z,1.27
2022-10-03T11:54:30.955Z,1.20
2022-10-03T11:56:47.477Z,1.20
2022-10-03T11:58:55.382Z,1.15
2022-10-03T12:01:04.645Z,1.58
2022-10-03T12:03:16.177Z,1.20
2022-10-03T12:06:19.490Z,0.98
2022-10-03T12:08:53.574Z,1.40
2022-10-03T12:11:18.649Z,2.30
2022-10-03T12:13:35.066Z,1.55
2022-10-03T12:15:48.324Z,1.45
2022-10-03T12:18:07.081Z,1.45
2022-10-03T12:20:33.558Z,1.48
2022-10-03T12:22:54.186Z,1.40
2022-10-03T12:25:23.454Z,1.23
2022-10-03T12:27:47.637Z,1.75
2022-10-03T12:29:58.994Z,1.92
2022-10-03T12:32:20.102Z,1.80
2022-10-03T12:34:43.235Z,1.60
2022-10-03T12:37:03.901Z,1.65
2022-10-03T12:39:25.882Z,1.83
2022-10-03T12:41:56.702Z,2.35
2022-10-03T12:44:36.543Z,2.63
2022-10-03T12:46:48.196Z,1.92
2022-10-03T12:49:20.572Z,2.42
2022-10-03T12:51:44.989Z,1.80
2022-10-03T12:53:52.618Z,2.22
2022-10-03T12:56:11.916Z,2.00
2022-10-03T12:58:35.066Z,1.85
2022-10-03T13:00:49.659Z,2.00
2022-10-03T13:03:15.336Z,1.70
2022-10-03T13:05:37.806Z,2.42
2022-10-03T13:07:53.026Z,2.85
2022-10-03T13:10:17.077Z,3.47
2022-10-03T13:12:28.453Z,3.40
2022-10-03T13:14:41.615Z,3.60
2022-10-03T13:17:09.381Z,3.38
2022-10-03T13:19:30.125Z,3.30
2022-10-03T13:21:48.369Z,3.60
2022-10-03T13:23:58.775Z,4.60
2022-10-03T13:26:20.056Z,3.78
2022-10-03T13:28:28.157Z,4.00
2022-10-03T13:30:34.725Z,5.25
2022-10-03T13:32:43.310Z,19.40
2022-10-03T13:35:42.024Z,26.58
2022-10-03T13:37:59.919Z,28.02
2022-10-03T13:40:12.617Z,38.08
2022-10-03T13:42:14.472Z,46.08
2022-10-03T13:44:33.718Z,51.95
2022-10-03T13:46:57.294Z,61.08
2022-10-03T13:49:11.045Z,70.28
2022-10-03T13:51:37.197Z,53.88
2022-10-03T13:53:45.765Z,37.17
2022-10-03T13:56:01.749Z,32.35
2022-10-03T13:58:41.718Z,28.15
2022-10-03T14:00:52.647Z,30.27
2022-10-03T14:03:27.173Z,23.85
2022-10-03T14:05:32.035Z,15.43
2022-10-03T14:07:42.495Z,19.23
2022-10-03T14:10:30.123Z,24.75
2022-10-03T14:12:55.738Z,17.52
2022-10-03T14:15:17.149Z,12.60
2022-10-03T14:17:57.108Z,10.52
2022-10-03T14:20:07.775Z,14.43
2022-10-03T14:22:27.936Z,10.35
2022-10-03T14:24:38.579Z,9.93
2022-10-03T14:27:18.064Z,12.75
2022-10-03T14:29:41.521Z,14.80
2022-10-03T14:31:46.173Z,18.27
2022-10-03T14:33:48.429Z,15.63
2022-10-03T14:36:16.888Z,11.20
2022-10-03T14:39:02.316Z,15.02
2022-10-03T14:41:11.366Z,15.43
2022-10-03T14:43:42.774Z,17.83
2022-10-03T14:45:52.794Z,16.13
2022-10-03T14:48:01.306Z,20.63
2022-10-03T14:50:05.665Z,21.92
2022-10-03T14:52:19.003Z,18.05
2022-10-03T14:54:29.503Z,18.13
2022-10-03T14:57:00.244Z,24.17
2022-10-03T14:59:13.696Z,32.67
2022-10-03T15:01:20.828Z,45.67
2022-10-03T15:03:30.672Z,43.75
2022-10-03T15:05:36.094Z,49.35
2022-10-03T15:07:40.551Z,77.50
2022-10-03T15:09:50.269Z,71.40
2022-10-03T15:12:03.227Z,71.38
2022-10-03T15:14:10.261Z,70.72
2022-10-03T15:16:20.303Z,65.55
2022-10-03T15:18:24.869Z,56.80
2022-10-03T15:20:31.233Z,49.30
2022-10-03T15:22:49.460Z,44.65
2022-10-03T15:25:00.768Z,38.00
2022-10-03T15:27:13.488Z,32.42
2022-10-03T15:29:18.479Z,27.98
2022-10-03T15:31:42.184Z,25.17
2022-10-03T15:33:45.914Z,26.52
2022-10-03T15:35:55.179Z,27.60
2022-10-03T15:38:12.029Z,25.40
2022-10-03T15:40:34.022Z,24.90
2022-10-03T15:42:49.583Z,20.75
2022-10-03T15:45:07.452Z,20.65
2022-10-03T15:47:12.964Z,19.55
2022-10-03T15:49:21.081Z,31.83
2022-10-03T15:51:27.732Z,27.88
2022-10-03T15:53:37.190Z,34.80
2022-10-03T15:55:48.306Z,32.17
2022-10-03T15:57:53.973Z,24.15
2022-10-03T16:00:03.019Z,15.13
2022-10-03T16:02:21.267Z,13.02
2022-10-03T16:04:33.946Z,14.10
2022-10-03T16:06:53.643Z,13.18
2022-10-03T16:09:33.667Z,11.30
2022-10-03T16:12:04.152Z,12.60
2022-10-03T16:14:22.803Z,12.82
2022-10-03T16:16:42.815Z,9.82
2022-10-03T16:18:48.487Z,7.25
2022-10-03T16:20:57.895Z,5.93
2022-10-03T16:23:10.581Z,2.58
2022-10-03T16:25:18.416Z,1.27
2022-10-03T16:27:30.001Z,0.77
2022-10-03T16:29:37.524Z,1.50
2022-10-03T16:31:48.846Z,2.28
2022-10-03T16:34:12.447Z,2.00
2022-10-03T16:36:19.620Z,1.48
2022-10-03T16:38:44.183Z,1.02
2022-10-03T16:41:02.021Z,1.20
2022-10-03T16:43:12.603Z,1.33
2022-10-03T16:45:35.605Z,1.02
2022-10-03T16:47:38.707Z,1.30
2022-10-03T16:50:06.262Z,1.30
2022-10-03T16:52:34.790Z,2.17
2022-10-03T16:54:37.638Z,3.70
2022-10-03T16:56:44.772Z,3.33
2022-10-03T16:58:53.070Z,3.28
2022-10-03T17:01:26.003Z,4.25
2022-10-03T17:03:32.344Z,4.38
2022-10-03T17:05:46.215Z,7.05
2022-10-03T17:08:06.675Z,10.52
2022-10-03T17:10:31.959Z,10.60
2022-10-03T17:12:46.204Z,9.43
2022-10-03T17:14:49.141Z,8.57
2022-10-03T17:16:56.560Z,9.55
2022-10-03T17:19:14.646Z,9.55
2022-10-03T17:21:33.180Z,13.20
2022-10-03T17:23:56.486Z,15.48
2022-10-03T17:26:06.095Z,15.35
2022-10-03T17:28:15.351Z,15.00
2022-10-03T17:30:43.278Z,13.48
2022-10-03T17:32:53.438Z,14.43
2022-10-03T17:35:00.947Z,19.08
2022-10-03T17:37:12.355Z,25.98
2022-10-03T17:39:52.465Z,31.90
2022-10-03T17:42:03.670Z,30.23
2022-10-03T17:44:28.776Z,25.52
2022-10-03T17:47:04.697Z,24.92
2022-10-03T17:49:24.153Z,22.38
2022-10-03T17:51:36.914Z,18.63
2022-10-03T17:53:44.088Z,17.50
2022-10-03T17:55:57.310Z,18.33
2022-10-03T17:58:05.291Z,17.52
2022-10-03T18:00:18.317Z,16.65
2022-10-03T18:02:31.296Z,16.05
2022-10-03T18:04:40.140Z,14.55
2022-10-03T18:06:57.435Z,15.95
2022-10-03T18:09:07.475Z,16.33
2022-10-03T18:11:23.204Z,15.75
2022-10-03T18:13:35.161Z,17.02
2022-10-03T18:15:47.159Z,18.48
2022-10-03T18:17:59.868Z,19.23
2022-10-03T18:20:22.958Z,19.55
2022-10-03T18:22:38.528Z,20.08
2022-10-03T18:24:45.587Z,18.67
2022-10-03T18:27:32.378Z,18.40
2022-10-03T18:29:51.457Z,16.98
2022-10-03T18:31:58.992Z,14.07
2022-10-03T18:34:20.122Z,12.07
2022-10-03T18:36:58.986Z,12.23
2022-10-03T18:39:15.347Z,11.50
2022-10-03T18:41:19.175Z,9.27
2022-10-03T18:43:26.251Z,8.27
2022-10-03T18:45:41.940Z,8.07
2022-10-03T18:47:51.476Z,7.22
2022-10-03T18:49:59.328Z,7.13
2022-10-03T18:52:13.542Z,8.20
2022-10-03T18:54:27.571Z,5.25
2022-10-03T18:56:30.697Z,2.80
2022-10-03T18:58:45.067Z,3.55
2022-10-03T19:00:52.699Z,3.83
2022-10-03T19:03:03.935Z,4.78
2022-10-03T19:05:23.008Z,4.03
2022-10-03T19:07:28.217Z,3.97
2022-10-03T19:09:39.345Z,4.40
2022-10-03T19:12:01.637Z,3.53
2022-10-03T19:14:26.164Z,3.10
2022-10-03T19:17:05.842Z,3.47
2022-10-03T19:19:08.042Z,3.13
2022-10-03T19:21:21.219Z,2.60
2022-10-03T19:23:30.123Z,2.67
2022-10-03T19:25:39.327Z,2.97
2022-10-03T19:27:52.360Z,5.03
2022-10-03T19:29:59.427Z,5.10
2022-10-03T19:32:27.698Z,5.20
2022-10-03T19:34:35.444Z,4.07
2022-10-03T19:36:39.893Z,4.22
2022-10-03T19:38:46.335Z,3.10
2022-10-03T19:41:14.124Z,3.33
2022-10-03T19:43:16.406Z,3.78
2022-10-03T19:45:20.323Z,10.57
2022-10-03T19:47:34.023Z,13.95
2022-10-03T19:50:21.226Z,13.57
2022-10-03T19:52:32.400Z,11.80
2022-10-03T19:54:45.337Z,8.20
2022-10-03T19:56:48.017Z,6.47
2022-10-03T19:59:14.806Z,5.13
2022-10-03T20:01:17.175Z,5.70
2022-10-03T20:03:34.189Z,5.28
2022-10-03T20:05:51.100Z,7.45
2022-10-03T20:08:15.336Z,10.05
2022-10-03T20:10:39.707Z,34.22
2022-10-03T20:12:46.593Z,26.33
2022-10-03T20:14:56.325Z,13.07
2022-10-03T20:17:02.588Z,8.27
2022-10-03T20:19:15.075Z,32.38
2022-10-03T20:21:27.442Z,13.25
2022-10-03T20:23:33.075Z,9.82
2022-10-03T20:25:46.594Z,8.95
2022-10-03T20:27:57.730Z,9.10
2022-10-03T20:30:36.078Z,6.57
2022-10-03T20:32:43.755Z,6.03
2022-10-03T20:34:54.159Z,18.02
2022-10-03T20:37:16.998Z,18.95
2022-10-03T20:39:30.541Z,20.98
2022-10-03T20:41:42.491Z,17.50
2022-10-03T20:43:52.638Z,15.52
2022-10-03T20:46:06.560Z,13.32
2022-10-03T20:48:18.850Z,9.73
2022-10-03T20:50:20.998Z,6.70
2022-10-03T20:52:25.285Z,7.07
2022-10-03T20:54:35.668Z,4.57
2022-10-03T20:56:50.535Z,4.07
2022-10-03T20:58:58.519Z,3.40
2022-10-03T21:01:23.509Z,3.97
2022-10-03T21:04:07.340Z,2.97
2022-10-03T21:06:25.424Z,2.85
2022-10-03T21:08:38.099Z,3.13
2022-10-03T21:10:47.726Z,2.55
2022-10-03T21:13:02.961Z,2.30
2022-10-03T21:15:14.723Z,2.50
2022-10-03T21:17:20.365Z,3.00
2022-10-03T21:19:37.960Z,2.65
2022-10-03T21:21:47.631Z,2.92
2022-10-03T21:23:56.117Z,3.05
2022-10-03T21:26:01.455Z,2.60
2022-10-03T21:28:05.035Z,2.92
2022-10-03T21:30:23.355Z,2.90
2022-10-03T21:32:37.373Z,2.92
2022-10-03T21:34:58.510Z,2.75
2022-10-03T21:37:23.477Z,2.90
2022-10-03T21:39:36.583Z,3.10
2022-10-03T21:41:56.744Z,3.90
2022-10-03T21:44:02.514Z,3.88
2022-10-03T21:46:21.743Z,4.47
2022-10-03T21:56:27.998Z,8.95
2022-10-03T21:58:36.350Z,13.77
2022-10-03T22:01:13.375Z,15.45
2022-10-03T22:03:26.189Z,12.15
2022-10-03T22:05:50.628Z,26.77
2022-10-03T22:07:53.003Z,18.35
2022-10-03T22:09:59.434Z,14.40
2022-10-03T22:12:07.321Z,13.18
2022-10-03T22:14:41.627Z,13.90
2022-10-03T22:16:49.503Z,22.73
2022-10-03T22:19:07.101Z,39.53
2022-10-03T22:21:23.362Z,41.50
2022-10-03T22:23:50.733Z,49.15
2022-10-03T22:26:01.536Z,38.03
2022-10-03T22:28:48.712Z,31.38
2022-10-03T22:31:09.359Z,13.20
2022-10-03T22:33:34.454Z,7.78
2022-10-03T22:35:55.862Z,8.60
2022-10-03T22:37:58.128Z,11.82
2022-10-03T22:40:01.721Z,10.82
2022-10-03T22:42:06.890Z,13.77
2022-10-03T22:44:12.895Z,16.92
2022-10-03T22:46:26.265Z,26.98
2022-10-03T22:48:44.660Z,34.65
2022-10-03T22:50:47.642Z,27.23
2022-10-03T22:52:55.262Z,23.65
2022-10-03T22:54:58.312Z,21.17
2022-10-03T22:57:05.386Z,22.98
2022-10-03T22:59:33.853Z,20.60
2022-10-03T23:01:40.259Z,17.48
2022-10-03T23:03:43.101Z,14.07
2022-10-03T23:05:54.300Z,11.82
2022-10-03T23:08:10.552Z,10.70
2022-10-03T23:10:34.519Z,14.88
2022-10-03T23:12:48.161Z,19.45
2022-10-03T23:14:55.360Z,19.58
2022-10-03T23:17:34.080Z,18.30
2022-10-03T23:19:57.158Z,17.15
2022-10-03T23:22:03.401Z,17.80
2022-10-03T23:24:15.020Z,31.27
2022-10-03T23:26:56.607Z,39.33
2022-10-03T23:29:03.332Z,39.25
2022-10-03T23:31:05.808Z,27.58
2022-10-03T23:33:19.327Z,24.75
2022-10-03T23:35:41.817Z,19.00
2022-10-03T23:37:47.413Z,32.25
2022-10-03T23:39:58.428Z,30.60
2022-10-03T23:42:21.864Z,35.08
2022-10-03T23:45:10.632Z,33.00
2022-10-03T23:47:16.655Z,18.50
2022-10-03T23:49:20.820Z,11.63
2022-10-03T23:51:30.394Z,10.82
2022-10-03T23:53:47.159Z,11.10
2022-10-03T23:55:50.218Z,10.55
2022-10-03T23:57:52.434Z,9.85
2022-10-03T23:59:54.913Z,8.55
